Terminal Aerodrome Forecast
Issued by NWS

Home | Current Version | Previous Version | Text Only | Print | Product List | Glossary On
Versions: 1 2 3 4 5 6 7 8 9 10 11 12 13 14 15 16 17 18 19 20 21 22
000
FTUS41 KRLX 230524
TAFCKB
TAF
KCKB 230524Z 2306/2406 VRB03KT P6SM SCT200
     FM230900 VRB03KT 6SM BR SCT110
     FM231200 VRB03KT P6SM SCT090
     FM231600 11006KT P6SM BKN080=

USA.gov is the U.S. government's official web portal to all federal, state and local government web resources and services.